Port Huron, Michigan
Current Conditions -  °F | °C
As of 11:00 AM on Monday 26 Jan 2015 (Local Time) from CYZR Reporting Station
Clear Clear  
Wind Chill:   Ceiling: Unl
Heat Index: 18°   Visibility: 9mi
Dew Point: 10°   Wind: 9mph
Humidity: 73%   Direction: 40°NE
Pressure: 29.97"   Gusts: NA
Location:  42.98°N, 82.43°W
Report Text: CYZR 261600Z AUTO 04008KT 9SM CLR M08/M12 A2997 RMK SLP160
Loading
Personal Weather Stations






























Interactive Weather Map New forecast layout! Learn more

10-Day Weather Forecast

Advertisements
Track Severe Weather on mobile